Time;durP1;ratioP1;P1;durP2;ratioP2;P2;SDS_P1;SDS_P2;PMS_P1;PMS_P2;Temp;Humidity;BMP_temperature;BMP_pressure;BME280_temperature;BME280_humidity;BME280_pressure;Samples;Min_cycle;Max_cycle;Signal;HPM_P1;HPM_P2
2022/10/21 00:01:10;;;;;;;5.82;3.28;;;;;;;-143.85;100.00;70650.75;5094562;28;20115;-93
2022/10/21 00:03:36;;;;;;;4.40;2.60;;;;;;;-143.85;100.00;70650.75;5108422;28;20066;-92
2022/10/21 00:06:03;;;;;;;7.00;3.60;;;;;;;-143.85;100.00;70650.75;5114582;28;20096;-93
2022/10/21 00:08:28;;;;;;;5.03;2.88;;;;;;;-143.85;100.00;70650.75;5111275;28;20451;-92
2022/10/21 00:10:59;;;;;;;3.40;2.80;;;;;;;-143.85;100.00;70650.75;5095412;28;20059;-92
2022/10/21 00:13:27;;;;;;;5.00;3.10;;;;;;;-143.85;100.00;70650.75;5105043;28;20015;-92
2022/10/21 00:16:13;;;;;;;4.38;2.70;;;;;;;-143.85;100.00;70650.75;5097203;28;20101;-92
2022/10/21 00:18:41;;;;;;;5.47;2.83;;;;;;;-143.85;100.00;70650.75;5106677;28;20115;-92
2022/10/21 00:21:09;;;;;;;3.58;2.88;;;;;;;-143.85;100.00;70650.75;5110755;28;20020;-93
2022/10/21 00:23:34;;;;;;;5.03;2.75;;;;;;;-143.85;100.00;70650.75;5094222;28;20063;-92
2022/10/21 00:26:00;;;;;;;5.63;3.30;;;;;;;-143.85;100.00;70650.75;5108389;28;20063;-91
2022/10/21 00:28:26;;;;;;;3.78;2.33;;;;;;;-143.85;100.00;70650.75;5094322;28;20548;-92
2022/10/21 00:30:52;;;;;;;6.53;3.15;;;;;;;-143.85;100.00;70650.75;5102428;28;20119;-92
2022/10/21 00:33:18;;;;;;;10.18;2.83;;;;;;;-143.85;100.00;70650.75;5114438;28;20062;-92
2022/10/21 00:35:52;;;;;;;3.92;2.70;;;;;;;-143.85;100.00;70650.75;5114239;28;20035;-92
2022/10/21 00:38:18;;;;;;;6.82;3.00;;;;;;;-143.85;100.00;70650.75;5115026;28;20027;-92
2022/10/21 00:40:43;;;;;;;3.80;2.30;;;;;;;-143.85;100.00;70650.75;5114212;28;20031;-92
2022/10/21 00:43:10;;;;;;;4.40;3.17;;;;;;;-143.85;100.00;70650.75;5114076;28;20027;-92
2022/10/21 00:45:36;;;;;;;6.97;3.37;;;;;;;-143.85;100.00;70650.75;5108454;28;20031;-93
2022/10/21 00:48:05;;;;;;;4.10;2.40;;;;;;;-143.85;100.00;70650.75;5102552;28;20031;-92
2022/10/21 00:50:38;;;;;;;7.20;3.55;;;;;;;-143.85;100.00;70650.75;5110062;28;20483;-92
2022/10/21 00:53:06;;;;;;;3.88;2.40;;;;;;;-143.85;100.00;70650.75;5094629;28;20035;-92
2022/10/21 00:55:33;;;;;;;;;;;;;;;-143.85;100.00;70650.75;5107440;28;20039;-93
2022/10/21 00:58:00;;;;;;;5.27;3.00;;;;;;;-143.85;100.00;70650.75;5093629;28;19957;-92
2022/10/21 01:00:26;;;;;;;4.70;3.00;;;;;;;-143.85;100.00;70650.75;5109281;28;20031;-94
2022/10/21 01:02:51;;;;;;;4.15;2.25;;;;;;;-143.85;100.00;70650.75;5115069;28;20035;-93
2022/10/21 01:05:17;;;;;;;8.60;3.10;;;;;;;-143.85;100.00;70650.75;5099853;28;20052;-94
2022/10/21 01:07:46;;;;;;;6.07;3.42;;;;;;;-143.85;100.00;70650.75;5094552;28;20024;-93
2022/10/21 01:10:11;;;;;;;3.05;2.35;;;;;;;-143.85;100.00;70650.75;5101603;28;20413;-94
2022/10/21 01:13:11;;;;;;;6.28;3.00;;;;;;;-143.85;100.00;70650.75;5107775;28;20031;-93
2022/10/21 01:15:46;;;;;;;5.78;2.80;;;;;;;-143.85;100.00;70650.75;5093670;28;20032;-94
2022/10/21 01:18:14;;;;;;;7.20;2.72;;;;;;;-143.85;100.00;70650.75;5106857;28;20104;-94
2022/10/21 01:21:14;;;;;;;7.00;3.58;;;;;;;-143.85;100.00;70650.75;5107309;28;20039;-94
2022/10/21 01:24:20;;;;;;;4.07;3.15;;;;;;;-143.85;100.00;70650.75;5113180;28;20047;-92
2022/10/21 01:26:56;;;;;;;2.70;2.45;;;;;;;-143.85;100.00;70650.75;5104354;28;20043;-92
2022/10/21 01:29:53;;;;;;;4.22;2.20;;;;;;;-143.85;100.00;70650.75;5105635;28;20473;-92
2022/10/21 01:32:31;;;;;;;5.78;2.67;;;;;;;-143.85;100.00;70650.75;5093125;28;20028;-92
2022/10/21 01:35:02;;;;;;;4.15;2.88;;;;;;;-143.85;100.00;70650.75;5098594;28;20023;-90
2022/10/21 01:37:59;;;;;;;11.80;2.72;;;;;;;-143.85;100.00;70650.75;5096059;28;20472;-93
2022/10/21 01:41:00;;;;;;;7.25;3.35;;;;;;;-143.85;100.00;70650.75;5109951;28;20471;-93
2022/10/21 01:43:38;;;;;;;4.93;3.22;;;;;;;-143.85;100.00;70650.75;5094748;28;20119;-93
2022/10/21 01:46:13;;;;;;;4.85;2.92;;;;;;;-143.85;100.00;70650.75;5114470;28;20028;-93
2022/10/21 01:48:46;;;;;;;3.88;1.98;;;;;;;-143.85;100.00;70650.75;5111227;28;20431;-93
2022/10/21 01:51:12;;;;;;;4.63;2.72;;;;;;;-143.85;100.00;70650.75;5102147;28;20028;-93
2022/10/21 01:53:44;;;;;;;4.57;2.50;;;;;;;-143.85;100.00;70650.75;5117337;28;20032;-93
2022/10/21 01:56:13;;;;;;;4.45;2.20;;;;;;;-143.85;100.00;70650.75;5113459;28;20024;-94
2022/10/21 01:58:41;;;;;;;2.70;2.10;;;;;;;-143.85;100.00;70650.75;5112760;28;20031;-93
2022/10/21 02:01:09;;;;;;;4.95;3.30;;;;;;;-143.85;100.00;70650.75;5112911;28;20030;-93
2022/10/21 02:03:39;;;;;;;4.03;2.95;;;;;;;-143.85;100.00;70650.75;5112811;28;20027;-93
2022/10/21 02:06:05;;;;;;;7.47;4.00;;;;;;;-143.85;100.00;70650.75;5113042;28;20031;-93
2022/10/21 02:08:31;;;;;;;5.90;2.83;;;;;;;-143.85;100.00;70650.75;5113870;28;20055;-92
2022/10/21 02:11:01;;;;;;;2.25;2.05;;;;;;;-143.85;100.00;70650.75;5110448;28;20023;-92
2022/10/21 02:13:33;;;;;;;6.68;3.13;;;;;;;-143.85;100.00;70650.75;5102666;28;20051;-92
2022/10/21 02:16:01;;;;;;;9.00;2.38;;;;;;;-143.85;100.00;70650.75;5092447;28;20047;-90
2022/10/21 02:18:27;;;;;;;4.10;2.00;;;;;;;-143.85;100.00;70650.75;5095712;28;20078;-92
2022/10/21 02:21:01;;;;;;;2.53;1.83;;;;;;;-143.85;100.00;70650.75;5098304;28;20115;-92
2022/10/21 02:23:54;;;;;;;5.70;2.22;;;;;;;-143.85;100.00;70650.75;5103116;28;20411;-92
2022/10/21 02:26:22;;;;;;;4.47;3.00;;;;;;;-143.85;100.00;70650.75;5071113;28;20050;-92
2022/10/21 02:28:48;;;;;;;5.00;2.83;;;;;;;-143.85;100.00;70650.75;5112671;28;20031;-92
2022/10/21 02:31:46;;;;;;;7.47;2.88;;;;;;;-143.85;100.00;70650.75;5094986;28;20082;-93
2022/10/21 02:34:31;;;;;;;2.15;1.95;;;;;;;-143.85;100.00;70650.75;5092010;28;20039;-94
2022/10/21 02:37:34;;;;;;;4.32;2.35;;;;;;;-143.85;100.00;70650.75;5100402;28;20514;-93
2022/10/21 02:40:08;;;;;;;3.15;2.00;;;;;;;-143.85;100.00;70650.75;5111303;28;20063;-91
2022/10/21 02:42:40;;;;;;;2.78;2.10;;;;;;;-143.85;100.00;70650.75;5104706;28;20027;-91
2022/10/21 02:45:08;;;;;;;7.40;2.78;;;;;;;-143.85;100.00;70650.75;5101174;28;20116;-92
2022/10/21 02:47:35;;;;;;;3.72;2.42;;;;;;;-143.85;100.00;70650.75;5096536;28;20036;-90
2022/10/21 02:50:01;;;;;;;4.25;2.70;;;;;;;-143.85;100.00;70650.75;5109903;28;20032;-92
2022/10/21 02:52:26;;;;;;;5.55;3.28;;;;;;;-143.85;100.00;70650.75;5097593;28;20092;-91
2022/10/21 02:54:51;;;;;;;3.40;2.40;;;;;;;-143.85;100.00;70650.75;5104611;28;20071;-91
2022/10/21 02:57:17;;;;;;;3.20;2.75;;;;;;;-143.85;100.00;70650.75;5116182;28;20051;-91
2022/10/21 02:59:42;;;;;;;4.70;3.45;;;;;;;-143.85;100.00;70650.75;5116251;28;20180;-91
2022/10/21 03:02:08;;;;;;;4.80;2.67;;;;;;;-143.85;100.00;70650.75;5113250;28;20056;-92
2022/10/21 03:04:33;;;;;;;2.72;2.17;;;;;;;-143.85;100.00;70650.75;5108345;28;20048;-92
2022/10/21 03:06:59;;;;;;;10.20;2.50;;;;;;;-143.85;100.00;70650.75;5095829;28;20025;-91
2022/10/21 03:09:24;;;;;;;4.97;2.53;;;;;;;-143.85;100.00;70650.75;5115127;28;20030;-92
2022/10/21 03:11:49;;;;;;;5.47;3.05;;;;;;;-143.85;100.00;70650.75;5116017;28;20023;-92
2022/10/21 03:14:15;;;;;;;18.20;3.13;;;;;;;-143.85;100.00;70650.75;5115826;28;20494;-93
2022/10/21 03:16:40;;;;;;;3.05;2.35;;;;;;;-143.85;100.00;70650.75;5107693;28;20024;-93
2022/10/21 03:19:05;;;;;;;5.63;4.20;;;;;;;-143.85;100.00;70650.75;5095578;28;20026;-92
2022/10/21 03:21:31;;;;;;;4.28;2.28;;;;;;;-143.85;100.00;70650.75;5095340;28;20024;-92
2022/10/21 03:23:56;;;;;;;5.13;2.78;;;;;;;-143.85;100.00;70650.75;5105249;28;20028;-92
2022/10/21 03:26:22;;;;;;;5.10;2.47;;;;;;;-143.85;100.00;70650.75;5111057;28;20131;-92
2022/10/21 03:28:47;;;;;;;3.90;1.90;;;;;;;-143.85;100.00;70650.75;5106484;28;20118;-91
2022/10/21 03:31:13;;;;;;;5.53;2.75;;;;;;;-143.85;100.00;70650.75;5115557;28;20087;-92
2022/10/21 03:33:38;;;;;;;3.63;2.70;;;;;;;-143.85;100.00;70650.75;5115683;28;20032;-91
2022/10/21 03:36:04;;;;;;;5.35;2.58;;;;;;;-143.85;100.00;70650.75;5101207;28;20131;-92
2022/10/21 03:38:29;;;;;;;4.13;2.58;;;;;;;-143.85;100.00;70650.75;5112599;28;20030;-91
2022/10/21 03:40:55;;;;;;;7.53;2.33;;;;;;;-143.85;100.00;70650.75;5095099;28;20023;-90
2022/10/21 03:43:20;;;;;;;4.18;2.38;;;;;;;-143.85;100.00;70650.75;5109171;28;20506;-91
2022/10/21 03:45:46;;;;;;;4.22;2.58;;;;;;;-143.85;100.00;70650.75;5097183;28;20024;-90
2022/10/21 03:48:12;;;;;;;6.40;2.25;;;;;;;-143.85;100.00;70650.75;5103079;28;20213;-91
2022/10/21 03:50:37;;;;;;;3.60;2.88;;;;;;;-143.85;100.00;70650.75;5123292;28;20028;-88
2022/10/21 03:53:03;;;;;;;6.85;3.15;;;;;;;-143.85;100.00;70650.75;5139323;28;20010;-88
2022/10/21 03:55:28;;;;;;;5.10;2.50;;;;;;;-143.85;100.00;70650.75;5117991;28;20038;-91
2022/10/21 03:57:53;;;;;;;5.40;2.85;;;;;;;-143.85;100.00;70650.75;5116351;28;20020;-91
2022/10/21 04:00:19;;;;;;;4.50;2.80;;;;;;;-143.85;100.00;70650.75;5101129;28;20028;-93
2022/10/21 04:02:44;;;;;;;4.68;2.45;;;;;;;-143.85;100.00;70650.75;5108750;28;20470;-92
2022/10/21 04:05:11;;;;;;;4.35;2.20;;;;;;;-143.85;100.00;70650.75;5108017;28;20559;-91
2022/10/21 04:07:36;;;;;;;3.88;2.15;;;;;;;-143.85;100.00;70650.75;5096190;28;20082;-93
2022/10/21 04:10:02;;;;;;;3.72;2.40;;;;;;;-143.85;100.00;70650.75;5095895;28;20033;-91
2022/10/21 04:12:28;;;;;;;4.53;2.30;;;;;;;-143.85;100.00;70650.75;5106336;28;20114;-89
2022/10/21 04:14:53;;;;;;;2.45;2.22;;;;;;;-143.85;100.00;70650.75;5103059;28;20099;-90
2022/10/21 04:17:19;;;;;;;4.32;2.72;;;;;;;-143.85;100.00;70650.75;5097847;28;20024;-89
2022/10/21 04:19:44;;;;;;;2.83;2.13;;;;;;;-143.85;100.00;70650.75;5114732;28;20175;-92
2022/10/21 04:22:09;;;;;;;3.75;2.30;;;;;;;-143.85;100.00;70650.75;5112915;28;20114;-90
2022/10/21 04:24:35;;;;;;;2.35;2.15;;;;;;;-143.85;100.00;70650.75;5114386;28;20027;-91
2022/10/21 04:27:00;;;;;;;4.80;2.20;;;;;;;-143.85;100.00;70650.75;5104690;28;20036;-90
2022/10/21 04:29:26;;;;;;;5.18;2.47;;;;;;;-143.85;100.00;70650.75;5094361;28;20032;-90
2022/10/21 04:31:51;;;;;;;6.13;3.25;;;;;;;-143.85;100.00;70650.75;5102933;28;20041;-91
2022/10/21 04:34:16;;;;;;;3.45;2.50;;;;;;;-143.85;100.00;70650.75;5100144;28;20028;-91
2022/10/21 04:36:42;;;;;;;7.13;2.78;;;;;;;-143.85;100.00;70650.75;5096387;28;20026;-90
2022/10/21 04:39:07;;;;;;;4.28;2.55;;;;;;;-143.85;100.00;70650.75;5114669;28;20059;-91
2022/10/21 04:41:33;;;;;;;3.28;2.72;;;;;;;-143.85;100.00;70650.75;5099959;28;20372;-90
2022/10/21 04:44:00;;;;;;;4.57;1.98;;;;;;;-143.85;100.00;70650.75;5110736;28;20028;-91
2022/10/21 04:46:25;;;;;;;3.55;2.75;;;;;;;-143.85;100.00;70650.75;5093468;28;20028;-91
2022/10/21 04:48:51;;;;;;;3.28;2.35;;;;;;;-143.85;100.00;70650.75;5108657;28;20028;-90
2022/10/21 04:51:16;;;;;;;5.10;2.88;;;;;;;-143.85;100.00;70650.75;5094456;28;20020;-91
2022/10/21 04:53:42;;;;;;;4.88;2.70;;;;;;;-143.85;100.00;70650.75;5113982;28;20087;-91
2022/10/21 04:56:07;;;;;;;4.32;2.67;;;;;;;-143.85;100.00;70650.75;5115017;28;20028;-92
2022/10/21 04:58:32;;;;;;;3.55;2.80;;;;;;;-143.85;100.00;70650.75;5103065;28;20031;-91
2022/10/21 05:00:58;;;;;;;2.90;2.38;;;;;;;-143.85;100.00;70650.75;5093358;28;20024;-91
2022/10/21 05:03:23;;;;;;;3.38;2.50;;;;;;;-143.85;100.00;70650.75;5101990;28;20035;-91
2022/10/21 05:05:50;;;;;;;3.45;2.20;;;;;;;-143.85;100.00;70650.75;5112746;28;20130;-91
2022/10/21 05:08:16;;;;;;;2.00;1.70;;;;;;;-143.85;100.00;70650.75;5113691;28;20095;-89
2022/10/21 05:10:41;;;;;;;3.38;2.53;;;;;;;-143.85;100.00;70650.75;5111717;28;20039;-90
2022/10/21 05:13:07;;;;;;;2.03;1.83;;;;;;;-143.85;100.00;70650.75;5101407;28;20024;-89
2022/10/21 05:15:32;;;;;;;4.72;3.40;;;;;;;-143.85;100.00;70650.75;5114533;28;20040;-89
2022/10/21 05:17:58;;;;;;;4.70;2.45;;;;;;;-143.85;100.00;70650.75;5108690;28;20031;-90
2022/10/21 05:20:23;;;;;;;4.65;2.50;;;;;;;-143.85;100.00;70650.75;5105219;28;20035;-89
2022/10/21 05:22:50;;;;;;;4.25;2.08;;;;;;;-143.85;100.00;70650.75;5096112;28;20092;-89
2022/10/21 05:25:16;;;;;;;5.25;3.28;;;;;;;-143.85;100.00;70650.75;5099835;28;20031;-90
2022/10/21 05:27:42;;;;;;;3.28;2.58;;;;;;;-143.85;100.00;70650.75;5094877;28;20020;-90
2022/10/21 05:30:08;;;;;;;4.47;3.05;;;;;;;-143.85;100.00;70650.75;5102853;28;20136;-91
2022/10/21 05:32:33;;;;;;;5.95;2.53;;;;;;;-143.85;100.00;70650.75;5092796;28;20035;-91
2022/10/21 05:34:59;;;;;;;3.67;2.22;;;;;;;-143.85;100.00;70650.75;5107976;28;20036;-91
2022/10/21 05:37:24;;;;;;;4.85;2.40;;;;;;;-143.85;100.00;70650.75;5094066;28;20105;-91
2022/10/21 05:39:50;;;;;;;7.97;2.22;;;;;;;-143.85;100.00;70650.75;5106944;28;20490;-84
2022/10/21 05:42:15;;;;;;;4.63;2.53;;;;;;;-143.85;100.00;70650.75;5108975;28;20072;-84
2022/10/21 05:44:40;;;;;;;4.80;2.50;;;;;;;-143.85;100.00;70650.75;5100437;28;20066;-86
2022/10/21 05:47:06;;;;;;;5.75;2.55;;;;;;;-143.85;100.00;70650.75;5110123;28;20022;-86
2022/10/21 05:49:31;;;;;;;4.95;2.05;;;;;;;-143.85;100.00;70650.75;5112383;28;20030;-85
2022/10/21 05:51:57;;;;;;;4.13;2.60;;;;;;;-143.85;100.00;70650.75;5112314;28;20088;-84
2022/10/21 05:54:22;;;;;;;5.57;2.35;;;;;;;-143.85;100.00;70650.75;5112608;28;20036;-85
2022/10/21 05:56:48;;;;;;;3.60;1.92;;;;;;;-143.85;100.00;70650.75;5112964;28;20063;-85
2022/10/21 05:59:13;;;;;;;4.57;2.25;;;;;;;-143.85;100.00;70650.75;5099558;28;20027;-83
2022/10/21 06:01:39;;;;;;;3.65;2.05;;;;;;;-143.85;100.00;70650.75;5091644;28;20032;-85
2022/10/21 06:04:05;;;;;;;7.65;3.35;;;;;;;-143.85;100.00;70650.75;5111741;28;20526;-85
2022/10/21 06:06:31;;;;;;;8.98;3.50;;;;;;;-143.85;100.00;70650.75;5109474;28;20015;-84
2022/10/21 06:08:56;;;;;;;3.72;2.35;;;;;;;-143.85;100.00;70650.75;5108785;28;20035;-86
2022/10/21 06:11:22;;;;;;;4.97;2.70;;;;;;;-143.85;100.00;70650.75;5113166;28;20028;-87
2022/10/21 06:13:48;;;;;;;5.15;2.38;;;;;;;-143.85;100.00;70650.75;5111230;28;20515;-86
2022/10/21 06:16:14;;;;;;;4.32;2.58;;;;;;;-143.85;100.00;70650.75;5112335;28;20024;-86
2022/10/21 06:18:40;;;;;;;2.92;2.28;;;;;;;-143.85;100.00;70650.75;5113267;28;20036;-87
2022/10/21 06:21:06;;;;;;;2.55;2.30;;;;;;;-143.85;100.00;70650.75;5111815;28;20034;-86
2022/10/21 06:23:32;;;;;;;3.65;2.67;;;;;;;-143.85;100.00;70650.75;5111487;28;20074;-87
2022/10/21 06:26:01;;;;;;;7.78;2.45;;;;;;;-143.85;100.00;70650.75;5111926;28;20051;-91
2022/10/21 06:28:27;;;;;;;;;;;;;;;-143.85;100.00;70650.75;5112848;28;20054;-88
2022/10/21 06:30:54;;;;;;;4.78;2.65;;;;;;;-143.85;100.00;70650.75;5112363;28;20418;-88
2022/10/21 06:33:19;;;;;;;4.47;2.60;;;;;;;-143.85;100.00;70650.75;5107248;28;20088;-88
2022/10/21 06:35:45;;;;;;;4.32;3.03;;;;;;;-143.85;100.00;70650.75;5092126;28;20464;-92
2022/10/21 06:38:11;;;;;;;4.25;2.70;;;;;;;-143.85;100.00;70650.75;5109197;28;20016;-90
2022/10/21 06:40:36;;;;;;;3.88;2.35;;;;;;;-143.85;100.00;70650.75;5106260;28;20046;-91
2022/10/21 06:43:02;;;;;;;4.35;2.83;;;;;;;-143.85;100.00;70650.75;5101214;28;20024;-87
2022/10/21 06:45:27;;;;;;;4.07;2.80;;;;;;;-143.85;100.00;70650.75;5112545;28;20121;-89
2022/10/21 06:47:52;;;;;;;5.30;2.88;;;;;;;-143.85;100.00;70650.75;5107090;28;20031;-90
2022/10/21 06:50:18;;;;;;;4.55;2.33;;;;;;;-143.85;100.00;70650.75;5112056;28;20028;-90
2022/10/21 06:52:44;;;;;;;4.05;2.50;;;;;;;-143.85;100.00;70650.75;5112061;28;20542;-89
2022/10/21 06:55:09;;;;;;;4.10;2.40;;;;;;;-143.85;100.00;70650.75;5113224;28;20467;-89
2022/10/21 06:57:34;;;;;;;4.72;2.60;;;;;;;-143.85;100.00;70650.75;5112211;28;20042;-88
2022/10/21 07:00:00;;;;;;;13.60;2.78;;;;;;;-143.85;100.00;70650.75;5129148;28;20028;-87
2022/10/21 07:02:25;;;;;;;6.75;3.15;;;;;;;-143.85;100.00;70650.75;5125713;28;20012;-89
2022/10/21 07:04:51;;;;;;;8.55;3.20;;;;;;;-143.85;100.00;70650.75;5102852;28;20059;-89
2022/10/21 07:07:20;;;;;;;11.25;5.43;;;;;;;-143.85;100.00;70650.75;5091935;28;20031;-89
2022/10/21 07:09:45;;;;;;;4.85;3.25;;;;;;;-143.85;100.00;70650.75;5092941;28;20032;-90
2022/10/21 07:12:10;;;;;;;6.72;4.63;;;;;;;-143.85;100.00;70650.75;5087969;28;20081;-89
2022/10/21 07:14:36;;;;;;;4.05;3.03;;;;;;;-143.85;100.00;70650.75;5071729;28;20035;-90
2022/10/21 07:17:03;;;;;;;7.35;3.45;;;;;;;-143.85;100.00;70650.75;5074728;28;20020;-89
2022/10/21 07:19:28;;;;;;;5.38;3.05;;;;;;;-143.85;100.00;70650.75;5084813;28;20044;-88
2022/10/21 07:21:54;;;;;;;9.93;3.47;;;;;;;-143.85;100.00;70650.75;5078548;28;20067;-89
2022/10/21 07:24:19;;;;;;;5.70;3.50;;;;;;;-143.85;100.00;70650.75;5092065;28;20404;-90
2022/10/21 07:26:45;;;;;;;8.55;3.30;;;;;;;-143.85;100.00;70650.75;5094156;28;20032;-89
2022/10/21 07:29:10;;;;;;;3.80;2.80;;;;;;;-143.85;100.00;70650.75;5090808;28;20373;-88
2022/10/21 07:31:37;;;;;;;7.53;2.30;;;;;;;-143.85;100.00;70650.75;5074963;28;20025;-87
2022/10/21 07:34:04;;;;;;;11.80;4.10;;;;;;;-143.85;100.00;70650.75;5075587;28;20124;-88
2022/10/21 07:36:32;;;;;;;7.47;3.17;;;;;;;-143.85;100.00;70650.75;5091776;28;20074;-88
2022/10/21 07:39:01;;;;;;;5.97;2.75;;;;;;;-143.85;100.00;70650.75;5080330;28;20021;-87
2022/10/21 07:41:30;;;;;;;4.95;2.75;;;;;;;-143.85;100.00;70650.75;5077901;28;20032;-88
2022/10/21 07:43:56;;;;;;;8.18;2.65;;;;;;;-143.85;100.00;70650.75;5089381;28;20032;-87
2022/10/21 07:46:22;;;;;;;9.98;2.28;;;;;;;-143.85;100.00;70650.75;5075715;28;20029;-87
2022/10/21 07:48:48;;;;;;;5.50;3.00;;;;;;;-143.85;100.00;70650.75;5078447;28;20031;-88
2022/10/21 07:51:16;;;;;;;6.97;3.20;;;;;;;-143.85;100.00;70650.75;5091986;28;20025;-89
2022/10/21 07:53:42;;;;;;;5.50;3.40;;;;;;;-143.85;100.00;70650.75;5093496;28;20027;-89
2022/10/21 07:56:12;;;;;;;4.20;2.42;;;;;;;-143.85;100.00;70650.75;5085485;28;20111;-91
2022/10/21 07:58:38;;;;;;;5.32;2.75;;;;;;;-143.85;100.00;70650.75;5093796;28;20126;-91
2022/10/21 08:01:06;;;;;;;3.60;2.45;;;;;;;-143.85;100.00;70650.75;5094755;28;20056;-90
2022/10/21 08:03:32;;;;;;;10.35;3.55;;;;;;;-143.85;100.00;70650.75;5094627;28;20051;-93
2022/10/21 08:05:58;;;;;;;5.22;2.50;;;;;;;-143.85;100.00;70650.75;5115405;28;20071;-91
2022/10/21 08:08:24;;;;;;;5.80;2.95;;;;;;;-143.85;100.00;70650.75;5110496;28;20024;-91
2022/10/21 08:10:51;;;;;;;3.60;2.20;;;;;;;-143.85;100.00;70650.75;5099954;28;20039;-92
2022/10/21 08:13:17;;;;;;;9.00;2.92;;;;;;;-143.85;100.00;70650.75;5113521;28;20027;-93
2022/10/21 08:15:44;;;;;;;6.60;2.92;;;;;;;-143.85;100.00;70650.75;5115065;28;20037;-91
2022/10/21 08:18:09;;;;;;;5.15;2.50;;;;;;;-143.85;100.00;70650.75;5115608;28;20024;-93
2022/10/21 08:20:43;;;;;;;7.28;2.40;;;;;;;-143.85;100.00;70650.75;5114320;28;20024;-90
2022/10/21 08:23:14;;;;;;;4.22;2.70;;;;;;;-143.85;100.00;70650.75;5114861;28;20023;-89
2022/10/21 08:25:46;;;;;;;5.50;2.33;;;;;;;-143.85;100.00;70650.75;5114937;28;20375;-91
2022/10/21 08:28:11;;;;;;;5.97;2.88;;;;;;;-143.85;100.00;70650.75;5114199;28;20030;-93
2022/10/21 08:30:37;;;;;;;12.52;6.20;;;;;;;-143.85;100.00;70650.75;5114318;28;20403;-92
2022/10/21 08:33:02;;;;;;;6.03;3.75;;;;;;;-143.85;100.00;70650.75;5114618;28;20110;-91
2022/10/21 08:35:28;;;;;;;10.07;3.45;;;;;;;-143.85;100.00;70650.75;5111353;28;20467;-88
2022/10/21 08:37:53;;;;;;;4.60;2.28;;;;;;;-143.85;100.00;70650.75;5094082;28;20024;-89
2022/10/21 08:40:20;;;;;;;5.80;2.83;;;;;;;-143.85;100.00;70650.75;5112006;28;20039;-90
2022/10/21 08:42:46;;;;;;;6.47;4.03;;;;;;;-143.85;100.00;70650.75;5114224;28;20384;-90
2022/10/21 08:45:41;;;;;;;7.45;4.00;;;;;;;-143.85;100.00;70650.75;5114415;28;20027;-91
2022/10/21 08:48:14;;;;;;;8.27;4.40;;;;;;;-143.85;100.00;70650.75;5111031;28;20035;-90
2022/10/21 08:50:44;;;;;;;5.65;3.13;;;;;;;-143.85;100.00;70650.75;5094264;28;20114;-89
2022/10/21 08:53:40;;;;;;;7.07;2.47;;;;;;;-143.85;100.00;70650.75;5112142;28;20016;-95
2022/10/21 08:56:10;;;;;;;4.18;2.35;;;;;;;-143.85;100.00;70650.75;5100743;28;20094;-90
2022/10/21 08:58:36;;;;;;;5.72;2.70;;;;;;;-143.85;100.00;70650.75;5100409;28;20034;-92
2022/10/21 09:01:15;;;;;;;6.30;2.75;;;;;;;-143.85;100.00;70650.75;5113935;28;20055;-92
2022/10/21 09:03:53;;;;;;;6.05;2.85;;;;;;;-143.85;100.00;70650.75;5121691;27;20118;-92
2022/10/21 09:06:50;;;;;;;;;;;;;;;-143.85;100.00;70650.75;5114210;28;20024;-90
2022/10/21 09:09:34;;;;;;;7.13;2.72;;;;;;;-143.85;100.00;70650.75;5065855;28;19912;-93
2022/10/21 09:12:07;;;;;;;12.70;4.22;;;;;;;-143.85;100.00;70650.75;5109268;28;20027;-89
2022/10/21 09:14:35;;;;;;;12.45;3.47;;;;;;;-143.85;100.00;70650.75;5105596;28;20051;-88
2022/10/21 09:17:35;;;;;;;6.30;4.55;;;;;;;-143.85;100.00;70650.75;5109249;28;20035;-89
2022/10/21 09:20:28;;;;;;;8.45;4.38;;;;;;;-143.85;100.00;70650.75;5095135;28;20100;-92
2022/10/21 09:23:25;;;;;;;6.00;3.20;;;;;;;-143.85;100.00;70650.75;5102483;28;20480;-93
2022/10/21 09:25:58;;;;;;;17.85;8.02;;;;;;;-143.85;100.00;70650.75;5100697;28;20126;-91
2022/10/21 09:28:25;;;;;;;8.70;3.88;;;;;;;-143.85;100.00;70650.75;5113237;28;20051;-89
2022/10/21 09:30:51;;;;;;;8.32;3.58;;;;;;;-143.85;100.00;70650.75;5113564;28;20019;-91
2022/10/21 09:33:30;;;;;;;6.80;3.88;;;;;;;-143.85;100.00;70650.75;5113406;28;20131;-91
2022/10/21 09:36:03;;;;;;;7.55;3.90;;;;;;;-143.85;100.00;70650.75;5107162;28;20092;-90
2022/10/21 09:38:45;;;;;;;6.07;4.00;;;;;;;-143.85;100.00;70650.75;5106388;28;20122;-91
2022/10/21 09:41:25;;;;;;;5.03;2.70;;;;;;;-143.85;100.00;70650.75;5113461;28;20084;-91
2022/10/21 09:43:50;;;;;;;11.25;3.78;;;;;;;-143.85;100.00;70650.75;5113375;28;20512;-86
2022/10/21 09:46:16;;;;;;;5.80;3.03;;;;;;;-143.85;100.00;70650.75;5102778;28;20095;-85
2022/10/21 09:48:45;;;;;;;5.13;3.15;;;;;;;-143.85;100.00;70650.75;5106194;28;21573;-88
2022/10/21 09:51:23;;;;;;;10.05;3.47;;;;;;;-143.85;100.00;70650.75;5101851;28;20027;-87
2022/10/21 09:53:56;;;;;;;6.75;3.63;;;;;;;-143.85;100.00;70650.75;5112300;28;20062;-88
2022/10/21 09:56:37;;;;;;;5.35;3.35;;;;;;;-143.85;100.00;70650.75;5111888;28;20024;-87
2022/10/21 09:59:10;;;;;;;10.35;3.30;;;;;;;-143.85;100.00;70650.75;5125796;27;20031;-86
2022/10/21 10:01:38;;;;;;;5.97;3.00;;;;;;;-143.85;100.00;70650.75;5099205;28;20419;-89
2022/10/21 10:04:24;;;;;;;7.78;3.72;;;;;;;-143.85;100.00;70650.75;5113521;28;20047;-89
2022/10/21 10:06:50;;;;;;;4.93;2.80;;;;;;;-143.85;100.00;70650.75;5109389;28;20078;-85
2022/10/21 10:09:35;;;;;;;5.20;3.10;;;;;;;-143.85;100.00;70650.75;5095546;28;20081;-87
2022/10/21 10:12:11;;;;;;;5.90;3.00;;;;;;;-143.85;100.00;70650.75;5113513;28;20019;-88
2022/10/21 10:14:40;;;;;;;9.05;3.10;;;;;;;-143.85;100.00;70650.75;5106300;28;20043;-86
2022/10/21 10:17:27;;;;;;;6.20;3.47;;;;;;;-143.85;100.00;70650.75;5129462;28;20058;-86
2022/10/21 10:20:16;;;;;;;5.07;3.53;;;;;;;-143.85;100.00;70650.75;5115518;28;20036;-87
2022/10/21 10:22:44;;;;;;;5.10;3.28;;;;;;;-143.85;100.00;70650.75;5109288;28;20032;-88
2022/10/21 10:25:23;;;;;;;5.97;2.95;;;;;;;-143.85;100.00;70650.75;5093088;28;20024;-87
2022/10/21 10:27:54;;;;;;;9.43;4.00;;;;;;;-143.85;100.00;70650.75;5096740;28;20040;-87
2022/10/21 10:30:22;;;;;;;4.38;3.40;;;;;;;-143.85;100.00;70650.75;5108582;28;20514;-86
2022/10/21 10:32:50;;;;;;;;;;;;;;;-143.85;100.00;70650.75;5109894;28;20391;-89
2022/10/21 10:35:29;;;;;;;6.13;3.55;;;;;;;-143.85;100.00;70650.75;5129622;28;19914;-87
2022/10/21 10:38:01;;;;;;;6.43;2.63;;;;;;;-143.85;100.00;70650.75;5108706;28;20039;-87
2022/10/21 10:40:40;;;;;;;5.90;3.58;;;;;;;-143.85;100.00;70650.75;5092010;28;20020;-88
2022/10/21 10:43:23;;;;;;;6.60;2.95;;;;;;;-143.85;100.00;70650.75;5103835;28;20032;-88
2022/10/21 10:45:56;;;;;;;4.32;2.70;;;;;;;-143.85;100.00;70650.75;5107085;28;20471;-87
2022/10/21 10:48:32;;;;;;;6.70;3.33;;;;;;;-143.85;100.00;70650.75;5112119;28;20073;-89
2022/10/21 10:50:57;;;;;;;7.75;3.67;;;;;;;-143.85;100.00;70650.75;5103913;28;20028;-89
2022/10/21 10:53:23;;;;;;;5.22;2.80;;;;;;;-143.85;100.00;70650.75;5100577;28;20028;-89
2022/10/21 10:56:11;;;;;;;7.93;3.03;;;;;;;-143.85;100.00;70650.75;5111708;28;20034;-90
2022/10/21 10:58:42;;;;;;;6.88;3.40;;;;;;;-143.85;100.00;70650.75;5099593;28;20050;-90
2022/10/21 11:01:15;;;;;;;6.40;3.33;;;;;;;-143.85;100.00;70650.75;5095596;28;20058;-89
2022/10/21 11:03:52;;;;;;;7.47;3.10;;;;;;;-143.85;100.00;70650.75;5115384;28;20445;-90
2022/10/21 11:06:29;;;;;;;8.57;2.83;;;;;;;-143.85;100.00;70650.75;5116087;28;20103;-89
2022/10/21 11:08:58;;;;;;;3.03;2.15;;;;;;;-143.85;100.00;70650.75;5115622;28;20028;-90
2022/10/21 11:11:29;;;;;;;5.05;3.10;;;;;;;-143.85;100.00;70650.75;5115624;28;20518;-87
2022/10/21 11:13:56;;;;;;;3.95;2.45;;;;;;;-143.85;100.00;70650.75;5114383;28;20467;-88
2022/10/21 11:16:24;;;;;;;11.05;2.75;;;;;;;-143.85;100.00;70650.75;5113984;28;20059;-89
2022/10/21 11:19:08;;;;;;;5.63;2.85;;;;;;;-143.85;100.00;70650.75;5114685;28;20058;-89
2022/10/21 11:21:53;;;;;;;4.45;2.45;;;;;;;-143.85;100.00;70650.75;5114563;28;20032;-89